createdAt,value
2022-09-10T00:01:28.935Z,14.80
2022-09-10T00:03:55.938Z,14.82
2022-09-10T00:06:26.069Z,14.84
2022-09-10T00:08:53.022Z,14.85
2022-09-10T00:11:20.776Z,14.85
2022-09-10T00:13:47.417Z,14.87
2022-09-10T00:16:15.645Z,14.87
2022-09-10T00:18:42.865Z,14.87
2022-09-10T00:21:12.519Z,14.89
2022-09-10T00:23:39.413Z,14.91
2022-09-10T00:26:26.744Z,14.91
2022-09-10T00:28:55.502Z,14.91
2022-09-10T00:31:23.355Z,14.93
2022-09-10T00:33:50.941Z,14.92
2022-09-10T00:36:26.677Z,14.93
2022-09-10T00:38:55.532Z,14.92
2022-09-10T00:41:24.766Z,14.93
2022-09-10T00:44:04.399Z,14.93
2022-09-10T00:46:42.662Z,14.92
2022-09-10T00:49:21.345Z,14.92
2022-09-10T00:51:51.335Z,14.92
2022-09-10T00:54:22.087Z,14.91
2022-09-10T00:56:49.717Z,14.89
2022-09-10T00:59:20.262Z,14.87
2022-09-10T01:01:49.377Z,14.88
2022-09-10T01:04:16.570Z,14.86
2022-09-10T01:06:46.129Z,14.85
2022-09-10T01:09:14.328Z,14.84
2022-09-10T01:11:42.394Z,14.82
2022-09-10T01:14:19.077Z,14.80
2022-09-10T01:17:04.150Z,14.81
2022-09-10T01:20:08.903Z,14.81
2022-09-10T01:23:17.062Z,14.81
2022-09-10T01:26:09.123Z,14.81
2022-09-10T01:28:45.493Z,14.80
2022-09-10T01:31:24.393Z,14.77
2022-09-10T01:34:02.077Z,14.74
2022-09-10T01:36:33.937Z,14.74
2022-09-10T01:39:02.434Z,14.75
2022-09-10T01:41:28.918Z,14.74
2022-09-10T01:43:56.001Z,14.73
2022-09-10T01:46:39.595Z,14.74
2022-09-10T01:49:27.517Z,14.73
2022-09-10T01:52:04.480Z,14.70
2022-09-10T01:54:56.328Z,14.68
2022-09-10T01:57:38.436Z,14.66
2022-09-10T02:00:14.623Z,14.65
2022-09-10T02:02:55.982Z,14.67
2022-09-10T02:05:24.048Z,14.67
2022-09-10T02:07:55.794Z,14.69
2022-09-10T02:10:23.613Z,14.70
2022-09-10T02:12:50.140Z,14.68
2022-09-10T02:15:18.921Z,14.68
2022-09-10T02:17:47.004Z,14.69
2022-09-10T02:20:14.740Z,14.73
2022-09-10T02:22:49.693Z,14.71
2022-09-10T02:25:16.426Z,14.71
2022-09-10T02:27:43.969Z,14.72
2022-09-10T02:30:11.748Z,14.73
2022-09-10T02:32:38.218Z,14.72
2022-09-10T02:35:05.296Z,14.74
2022-09-10T02:37:31.713Z,14.75
2022-09-10T02:39:58.184Z,14.76
2022-09-10T02:42:25.479Z,14.77
2022-09-10T02:44:51.983Z,14.78
2022-09-10T02:47:18.407Z,14.81
2022-09-10T02:49:45.902Z,14.82
2022-09-10T02:52:12.400Z,14.85
2022-09-10T02:54:40.138Z,14.85
2022-09-10T02:57:07.621Z,14.87
2022-09-10T02:59:34.053Z,14.90
2022-09-10T03:02:00.670Z,14.90
2022-09-10T03:04:27.509Z,14.90
2022-09-10T03:06:54.886Z,14.90
2022-09-10T03:09:22.566Z,14.91
2022-09-10T03:11:49.852Z,14.93
2022-09-10T03:14:20.301Z,14.92
2022-09-10T03:16:47.676Z,14.94
2022-09-10T03:19:14.797Z,14.93
2022-09-10T03:21:41.529Z,14.95
2022-09-10T03:24:08.761Z,14.95
2022-09-10T03:26:35.208Z,14.98
2022-09-10T03:29:01.720Z,14.98
2022-09-10T03:31:28.190Z,14.99
2022-09-10T03:33:54.713Z,15.00
2022-09-10T03:36:22.790Z,15.01
2022-09-10T03:38:49.609Z,15.00
2022-09-10T03:41:16.019Z,15.03
2022-09-10T03:43:42.453Z,15.04
2022-09-10T03:46:09.088Z,15.04
2022-09-10T03:48:35.543Z,15.04
2022-09-10T03:51:01.971Z,15.03
2022-09-10T03:53:28.425Z,15.06
2022-09-10T03:55:55.657Z,15.07
2022-09-10T03:58:22.467Z,15.06
2022-09-10T04:00:48.916Z,15.09
2022-09-10T04:03:15.480Z,15.06
2022-09-10T04:05:45.494Z,15.06
2022-09-10T04:08:13.617Z,15.05
2022-09-10T04:10:41.407Z,15.05
2022-09-10T04:13:08.290Z,15.07
2022-09-10T04:15:34.805Z,15.08
2022-09-10T04:18:01.291Z,15.07
2022-09-10T04:20:27.964Z,15.08
2022-09-10T04:22:56.625Z,15.07
2022-09-10T04:25:23.783Z,15.09
2022-09-10T04:27:50.657Z,15.09
2022-09-10T04:30:18.457Z,15.08
2022-09-10T04:32:45.251Z,15.08
2022-09-10T04:35:15.266Z,15.07
2022-09-10T04:37:43.073Z,15.08
2022-09-10T04:40:10.440Z,15.09
2022-09-10T04:42:37.042Z,15.06
2022-09-10T04:45:03.875Z,15.07
2022-09-10T04:47:30.352Z,15.08
2022-09-10T04:49:56.785Z,15.09
2022-09-10T04:52:24.192Z,15.11
2022-09-10T04:54:50.638Z,15.10
2022-09-10T04:57:17.063Z,15.10
2022-09-10T04:59:43.800Z,15.10
2022-09-10T05:02:10.493Z,15.09
2022-09-10T05:04:37.363Z,15.09
2022-09-10T05:07:03.783Z,15.12
2022-09-10T05:09:31.382Z,15.11
2022-09-10T05:11:58.345Z,15.09
2022-09-10T05:14:25.484Z,15.11
2022-09-10T05:16:52.197Z,15.11
2022-09-10T05:19:18.767Z,15.10
2022-09-10T05:21:45.512Z,15.12
2022-09-10T05:24:12.553Z,15.11
2022-09-10T05:26:39.927Z,15.12
2022-09-10T05:29:06.700Z,15.13
2022-09-10T05:31:33.984Z,15.13
2022-09-10T05:34:01.159Z,15.13
2022-09-10T05:36:29.114Z,15.16
2022-09-10T05:38:55.520Z,15.15
2022-09-10T05:41:21.992Z,15.17
2022-09-10T05:43:48.681Z,15.21
2022-09-10T05:46:15.671Z,15.22
2022-09-10T05:48:42.678Z,15.24
2022-09-10T05:51:09.371Z,15.27
2022-09-10T05:53:35.779Z,15.30
2022-09-10T05:56:02.358Z,15.30
2022-09-10T05:58:30.042Z,15.32
2022-09-10T06:00:58.061Z,15.33
2022-09-10T06:03:24.701Z,15.36
2022-09-10T06:05:52.099Z,15.38
2022-09-10T06:08:21.894Z,15.42
2022-09-10T06:11:06.008Z,15.45
2022-09-10T06:13:33.713Z,15.48
2022-09-10T06:16:00.701Z,15.47
2022-09-10T06:18:27.701Z,15.48
2022-09-10T06:21:11.520Z,15.50
2022-09-10T06:23:39.066Z,15.51
2022-09-10T06:26:08.142Z,15.53
2022-09-10T06:28:35.093Z,15.53
2022-09-10T06:31:04.289Z,15.57
2022-09-10T06:33:31.788Z,15.59
2022-09-10T06:36:00.625Z,15.61
2022-09-10T06:38:33.532Z,15.66
2022-09-10T06:41:01.812Z,15.70
2022-09-10T06:43:33.150Z,15.69
2022-09-10T06:45:59.845Z,15.70
2022-09-10T06:48:47.899Z,15.74
2022-09-10T06:51:16.184Z,15.77
2022-09-10T06:53:46.373Z,15.78
2022-09-10T06:56:15.066Z,15.81
2022-09-10T06:58:41.598Z,15.85
2022-09-10T07:01:17.517Z,15.93
2022-09-10T07:03:44.850Z,16.01
2022-09-10T07:06:16.891Z,16.05
2022-09-10T07:08:44.174Z,16.17
2022-09-10T07:11:13.552Z,16.19
2022-09-10T07:13:40.741Z,16.19
2022-09-10T07:16:07.488Z,16.23
2022-09-10T07:18:33.982Z,16.24
2022-09-10T07:21:13.041Z,16.24
2022-09-10T07:23:40.527Z,16.30
2022-09-10T07:26:10.052Z,16.36
2022-09-10T07:28:37.797Z,16.47
2022-09-10T07:31:16.554Z,16.54
2022-09-10T07:33:48.250Z,16.58
2022-09-10T07:36:15.568Z,16.59
2022-09-10T07:38:43.185Z,16.59
2022-09-10T07:41:13.182Z,16.67
2022-09-10T07:43:41.695Z,16.81
2022-09-10T07:46:12.369Z,16.97
2022-09-10T07:48:40.340Z,17.08
2022-09-10T07:51:08.864Z,17.15
2022-09-10T07:53:35.797Z,17.28
2022-09-10T07:56:05.039Z,17.51
2022-09-10T07:58:32.945Z,17.61
2022-09-10T08:01:00.207Z,17.60
2022-09-10T08:03:27.638Z,17.52
2022-09-10T08:05:54.991Z,17.41
2022-09-10T08:08:22.501Z,17.30
2022-09-10T08:10:49.708Z,17.28
2022-09-10T08:13:16.330Z,17.32
2022-09-10T08:15:44.298Z,17.32
2022-09-10T08:18:13.525Z,17.35
2022-09-10T08:20:40.822Z,17.34
2022-09-10T08:23:07.815Z,17.33
2022-09-10T08:25:34.857Z,17.33
2022-09-10T08:28:01.414Z,17.36
2022-09-10T08:30:28.529Z,17.43
2022-09-10T08:32:56.118Z,17.49
2022-09-10T08:35:22.642Z,17.50
2022-09-10T08:37:49.156Z,17.51
2022-09-10T08:40:16.377Z,17.53
2022-09-10T08:42:47.114Z,17.49
2022-09-10T08:45:22.330Z,17.48
2022-09-10T08:47:58.542Z,17.42
2022-09-10T08:50:36.233Z,17.45
2022-09-10T08:53:20.421Z,17.43
2022-09-10T08:55:49.038Z,17.41
2022-09-10T08:58:32.941Z,17.40
2022-09-10T09:01:05.000Z,17.33
2022-09-10T09:03:41.955Z,17.32
2022-09-10T09:06:21.207Z,17.34
2022-09-10T09:08:49.796Z,17.32
2022-09-10T09:11:34.917Z,17.27
2022-09-10T09:14:13.593Z,17.28
2022-09-10T09:17:01.869Z,17.24
2022-09-10T09:19:45.148Z,17.22
2022-09-10T09:22:40.831Z,17.22
2022-09-10T09:25:30.329Z,17.25
2022-09-10T09:27:57.721Z,17.32
2022-09-10T09:30:31.879Z,17.36
2022-09-10T09:33:03.865Z,17.42
2022-09-10T09:35:45.170Z,17.41
2022-09-10T09:38:38.713Z,17.49
2022-09-10T09:41:24.211Z,17.55
2022-09-10T09:44:06.745Z,17.63
2022-09-10T09:46:34.365Z,17.71
2022-09-10T09:49:02.218Z,17.83
2022-09-10T09:51:35.169Z,18.03
2022-09-10T09:56:59.070Z,18.44
2022-09-10T09:59:35.617Z,18.49
2022-09-10T10:02:13.910Z,18.44
2022-09-10T10:04:53.858Z,18.36
2022-09-10T10:07:31.441Z,18.21
2022-09-10T10:10:03.300Z,18.22
2022-09-10T10:12:33.356Z,18.20
2022-09-10T10:15:00.973Z,18.23
2022-09-10T10:17:40.118Z,18.20
2022-09-10T10:20:15.287Z,18.30
2022-09-10T10:22:46.945Z,18.56
2022-09-10T10:25:38.309Z,18.97
2022-09-10T10:28:20.853Z,19.19
2022-09-10T10:30:55.760Z,19.51
2022-09-10T10:33:29.317Z,19.47
2022-09-10T10:36:07.783Z,19.17
2022-09-10T10:38:40.298Z,18.88
2022-09-10T10:41:25.729Z,18.68
2022-09-10T10:44:11.005Z,18.50
2022-09-10T10:46:53.717Z,18.52
2022-09-10T10:49:49.315Z,18.46
2022-09-10T10:52:52.837Z,18.39
2022-09-10T10:55:35.824Z,18.47
2022-09-10T10:58:39.257Z,18.57
2022-09-10T11:01:19.926Z,18.73
2022-09-10T11:03:55.680Z,18.85
2022-09-10T11:06:26.442Z,18.99
2022-09-10T11:09:13.536Z,19.27
2022-09-10T11:12:01.278Z,19.70
2022-09-10T11:14:49.883Z,20.06
2022-09-10T11:17:39.705Z,20.02
2022-09-10T11:20:29.280Z,19.62
2022-09-10T11:23:15.120Z,19.41
2022-09-10T11:25:59.556Z,19.16
2022-09-10T11:28:36.398Z,18.91
2022-09-10T11:31:11.858Z,18.75
2022-09-10T11:33:49.296Z,18.70
2022-09-10T11:36:25.119Z,18.68
2022-09-10T11:39:19.260Z,18.72
2022-09-10T11:41:48.662Z,18.78
2022-09-10T11:44:14.995Z,18.82
2022-09-10T11:47:14.384Z,18.87
2022-09-10T11:49:48.961Z,18.98
2022-09-10T11:52:17.460Z,19.05
2022-09-10T11:54:47.466Z,19.12
2022-09-10T11:57:58.402Z,19.42
2022-09-10T12:00:25.716Z,19.87
2022-09-10T12:03:29.499Z,19.97
2022-09-10T12:06:09.111Z,19.92
2022-09-10T12:09:06.479Z,19.69
2022-09-10T12:11:47.237Z,19.49
2022-09-10T12:14:16.584Z,19.55
2022-09-10T12:16:49.142Z,19.60
2022-09-10T12:19:21.129Z,19.65
2022-09-10T12:21:55.618Z,19.68
2022-09-10T12:24:27.592Z,19.71
2022-09-10T12:26:54.973Z,19.89
2022-09-10T12:29:40.859Z,20.28
2022-09-10T12:32:28.562Z,20.67
2022-09-10T12:35:32.682Z,20.82
2022-09-10T12:38:36.687Z,20.48
2022-09-10T12:41:08.670Z,20.22
2022-09-10T12:43:41.218Z,20.01
2022-09-10T12:46:10.422Z,19.91
2022-09-10T12:48:40.034Z,19.96
2022-09-10T12:51:18.931Z,20.09
2022-09-10T12:54:06.568Z,19.97
2022-09-10T12:57:12.777Z,19.78
2022-09-10T12:59:49.617Z,19.71
2022-09-10T13:02:40.889Z,19.77
2022-09-10T13:05:38.047Z,19.79
2022-09-10T13:08:18.761Z,19.64
2022-09-10T13:11:07.441Z,19.54
2022-09-10T13:13:43.533Z,19.79
2022-09-10T13:16:17.332Z,19.91
2022-09-10T13:18:46.568Z,19.74
2022-09-10T13:21:24.957Z,19.57
2022-09-10T13:23:55.374Z,19.39
2022-09-10T13:26:31.177Z,19.25
2022-09-10T13:29:00.647Z,19.23
2022-09-10T13:32:02.303Z,19.24
2022-09-10T13:34:51.495Z,19.47
2022-09-10T13:37:28.712Z,19.80
2022-09-10T13:40:21.411Z,20.12
2022-09-10T13:43:19.294Z,20.60
2022-09-10T13:45:52.469Z,20.86
2022-09-10T13:48:23.811Z,20.53
2022-09-10T13:51:08.325Z,20.21
2022-09-10T13:53:39.532Z,19.83
2022-09-10T13:56:14.327Z,19.56
2022-09-10T13:58:48.467Z,19.36
2022-09-10T14:01:15.190Z,19.24
2022-09-10T14:03:42.057Z,19.15
2022-09-10T14:06:12.866Z,19.10
2022-09-10T14:08:44.981Z,19.34
2022-09-10T14:11:19.364Z,19.98
2022-09-10T14:13:55.934Z,20.54
2022-09-10T14:16:30.376Z,21.03
2022-09-10T14:19:01.765Z,21.21
2022-09-10T14:21:28.737Z,21.10
2022-09-10T14:23:57.305Z,20.73
2022-09-10T14:26:30.016Z,20.40
2022-09-10T14:29:22.736Z,20.18
2022-09-10T14:31:49.169Z,19.97
2022-09-10T14:34:26.852Z,19.93
2022-09-10T14:36:53.315Z,19.97
2022-09-10T14:39:21.833Z,20.07
2022-09-10T14:41:49.664Z,20.13
2022-09-10T14:44:29.667Z,20.10
2022-09-10T14:47:07.985Z,20.11
2022-09-10T14:49:38.336Z,19.99
2022-09-10T14:52:06.089Z,19.87
2022-09-10T14:54:34.089Z,19.86
2022-09-10T14:57:18.464Z,20.19
2022-09-10T14:59:46.465Z,21.43
2022-09-10T15:02:25.065Z,21.91
2022-09-10T15:04:51.644Z,22.34
2022-09-10T15:07:18.955Z,22.78
2022-09-10T15:09:46.781Z,22.80
2022-09-10T15:12:24.854Z,23.47
2022-09-10T15:14:51.730Z,24.61
2022-09-10T15:17:18.994Z,24.33
2022-09-10T15:19:47.035Z,24.06
2022-09-10T15:22:21.367Z,24.62
2022-09-10T15:25:08.621Z,25.03
2022-09-10T15:27:34.365Z,25.24
2022-09-10T15:30:00.900Z,25.58
2022-09-10T15:32:27.307Z,25.61
2022-09-10T15:34:53.858Z,25.71
2022-09-10T15:37:22.340Z,25.64
2022-09-10T15:39:48.829Z,25.85
2022-09-10T15:42:16.941Z,26.04
2022-09-10T15:44:44.068Z,26.19
2022-09-10T15:47:10.493Z,27.15
2022-09-10T15:49:36.962Z,26.80
2022-09-10T15:52:03.445Z,27.18
2022-09-10T15:54:29.829Z,27.93
2022-09-10T15:56:56.436Z,27.98
2022-09-10T15:59:23.065Z,28.25
2022-09-10T16:01:50.099Z,28.30
2022-09-10T16:04:16.706Z,28.06
2022-09-10T16:06:43.738Z,29.22
2022-09-10T16:09:12.377Z,28.32
2022-09-10T16:11:40.711Z,28.08
2022-09-10T16:14:11.199Z,28.53
2022-09-10T16:16:39.089Z,28.20
2022-09-10T16:19:05.892Z,28.15
2022-09-10T16:21:36.212Z,27.88
2022-09-10T16:24:04.265Z,27.89
2022-09-10T16:26:39.995Z,27.78
2022-09-10T16:29:12.216Z,28.09
2022-09-10T16:31:41.377Z,28.46
2022-09-10T16:34:11.552Z,28.87
2022-09-10T16:36:39.134Z,29.33
2022-09-10T16:39:12.310Z,29.77
2022-09-10T16:41:40.970Z,29.24
2022-09-10T16:44:08.859Z,29.03
2022-09-10T16:46:35.569Z,29.12
2022-09-10T16:49:02.156Z,29.73
2022-09-10T16:51:28.878Z,30.15
2022-09-10T16:53:57.850Z,30.16
2022-09-10T16:56:25.653Z,30.13
2022-09-10T16:58:52.565Z,28.24
2022-09-10T17:01:20.790Z,25.95
2022-09-10T17:03:54.906Z,24.24
2022-09-10T17:06:26.776Z,23.06
2022-09-10T17:08:55.270Z,22.34
2022-09-10T17:11:22.781Z,21.66
2022-09-10T17:13:50.899Z,21.26
2022-09-10T17:16:28.093Z,21.01
2022-09-10T17:19:00.172Z,20.74
2022-09-10T17:21:28.565Z,20.43
2022-09-10T17:23:55.846Z,20.17
2022-09-10T17:26:24.146Z,19.92
2022-09-10T17:29:01.789Z,19.72
2022-09-10T17:31:29.448Z,19.54
2022-09-10T17:33:56.902Z,19.43
2022-09-10T17:36:25.249Z,19.33
2022-09-10T17:38:56.194Z,19.26
2022-09-10T17:41:23.968Z,19.16
2022-09-10T17:43:51.164Z,19.05
2022-09-10T17:46:21.233Z,18.99
2022-09-10T17:48:48.343Z,18.89
2022-09-10T17:51:21.228Z,18.83
2022-09-10T17:53:47.692Z,18.80
2022-09-10T17:56:16.813Z,18.76
2022-09-10T17:58:43.278Z,18.72
2022-09-10T18:01:23.089Z,18.63
2022-09-10T18:03:50.379Z,18.52
2022-09-10T18:06:16.808Z,18.44
2022-09-10T18:08:43.662Z,18.40
2022-09-10T18:11:13.393Z,18.33
2022-09-10T18:13:40.293Z,18.32
2022-09-10T18:16:16.730Z,18.28
2022-09-10T18:18:47.523Z,18.18
2022-09-10T18:21:16.117Z,18.12
2022-09-10T18:23:44.291Z,18.04
2022-09-10T18:26:12.897Z,18.03
2022-09-10T18:28:39.324Z,18.03
2022-09-10T18:31:06.619Z,18.01
2022-09-10T18:33:40.431Z,18.00
2022-09-10T18:36:15.291Z,17.93
2022-09-10T18:38:42.753Z,17.89
2022-09-10T18:41:31.008Z,17.84
2022-09-10T18:43:59.655Z,17.78
2022-09-10T18:46:29.011Z,17.75
2022-09-10T18:48:57.053Z,17.70
2022-09-10T18:51:26.050Z,17.63
2022-09-10T18:53:54.865Z,17.58
2022-09-10T18:56:23.765Z,17.51
2022-09-10T18:58:55.901Z,17.46
2022-09-10T19:01:24.148Z,17.40
2022-09-10T19:03:51.079Z,17.34
2022-09-10T19:06:21.010Z,17.28
2022-09-10T19:08:53.384Z,17.19
2022-09-10T19:11:22.504Z,17.08
2022-09-10T19:13:54.282Z,17.03
2022-09-10T19:16:24.133Z,16.91
2022-09-10T19:18:52.594Z,16.83
2022-09-10T19:21:20.338Z,16.78
2022-09-10T19:23:48.287Z,16.77
2022-09-10T19:26:14.840Z,16.76
2022-09-10T19:28:42.138Z,16.75
2022-09-10T19:31:10.714Z,16.75
2022-09-10T19:33:37.475Z,16.73
2022-09-10T19:36:06.293Z,16.67
2022-09-10T19:38:37.728Z,16.62
2022-09-10T19:41:18.796Z,16.62
2022-09-10T19:43:50.063Z,16.58
2022-09-10T19:46:18.326Z,16.52
2022-09-10T19:48:46.630Z,16.51
2022-09-10T19:51:20.189Z,16.50
2022-09-10T19:53:47.624Z,16.44
2022-09-10T19:56:20.709Z,16.42
2022-09-10T19:58:49.692Z,16.40
2022-09-10T20:01:21.980Z,16.35
2022-09-10T20:03:49.914Z,16.32
2022-09-10T20:06:19.372Z,16.33
2022-09-10T20:08:50.438Z,16.31
2022-09-10T20:11:22.372Z,16.30
2022-09-10T20:13:50.047Z,16.27
2022-09-10T20:16:17.294Z,16.21
2022-09-10T20:18:44.529Z,16.19
2022-09-10T20:21:23.124Z,16.16
2022-09-10T20:23:52.120Z,16.11
2022-09-10T20:26:27.222Z,16.06
2022-09-10T20:29:14.352Z,16.02
2022-09-10T20:31:41.965Z,16.01
2022-09-10T20:34:12.442Z,15.97
2022-09-10T20:36:42.160Z,15.95
2022-09-10T20:39:11.093Z,15.93
2022-09-10T20:41:39.866Z,15.91
2022-09-10T20:44:06.593Z,15.90
2022-09-10T20:46:34.429Z,15.89
2022-09-10T20:49:02.941Z,15.91
2022-09-10T20:51:32.082Z,15.89
2022-09-10T20:53:59.231Z,15.89
2022-09-10T20:56:26.035Z,15.88
2022-09-10T20:58:52.478Z,15.86
2022-09-10T21:01:21.434Z,15.79
2022-09-10T21:03:49.453Z,15.74
2022-09-10T21:06:19.494Z,15.67
2022-09-10T21:08:47.605Z,15.63
2022-09-10T21:11:16.832Z,15.59
2022-09-10T21:13:49.683Z,15.54
2022-09-10T21:16:18.965Z,15.48
2022-09-10T21:18:54.660Z,15.46
2022-09-10T21:21:26.886Z,15.38
2022-09-10T21:23:58.698Z,15.28
2022-09-10T21:26:27.946Z,15.19
2022-09-10T21:28:56.295Z,15.13
2022-09-10T21:31:23.356Z,15.10
2022-09-10T21:33:50.087Z,15.06
2022-09-10T21:36:18.853Z,15.05
2022-09-10T21:38:49.371Z,15.01
2022-09-10T21:41:18.133Z,14.93
2022-09-10T21:43:46.413Z,14.89
2022-09-10T21:46:14.101Z,14.87
2022-09-10T21:48:42.496Z,14.82
2022-09-10T21:51:14.154Z,14.76
2022-09-10T21:53:42.647Z,14.75
2022-09-10T21:56:12.533Z,14.79
2022-09-10T21:58:39.783Z,14.79
2022-09-10T22:01:18.562Z,14.75
2022-09-10T22:03:47.199Z,14.69
2022-09-10T22:06:17.074Z,14.66
2022-09-10T22:08:46.184Z,14.62
2022-09-10T22:11:16.039Z,14.57
2022-09-10T22:13:43.777Z,14.51
2022-09-10T22:16:12.474Z,14.51
2022-09-10T22:18:39.947Z,14.50
2022-09-10T22:21:06.702Z,14.50
2022-09-10T22:23:38.567Z,14.47
2022-09-10T22:26:10.427Z,14.37
2022-09-10T22:28:38.418Z,14.31
2022-09-10T22:31:29.373Z,14.33
2022-09-10T22:34:01.339Z,14.30
2022-09-10T22:36:33.989Z,14.27
2022-09-10T22:39:03.191Z,14.24
2022-09-10T22:41:31.649Z,14.18
2022-09-10T22:43:58.358Z,14.07
2022-09-10T22:46:24.937Z,14.01
2022-09-10T22:48:51.497Z,14.02
2022-09-10T22:51:20.806Z,13.98
2022-09-10T22:53:48.080Z,13.95
2022-09-10T22:56:14.931Z,13.94
2022-09-10T22:58:41.539Z,13.91
2022-09-10T23:01:10.741Z,13.87
2022-09-10T23:03:37.650Z,13.86
2022-09-10T23:06:18.853Z,13.84
2022-09-10T23:08:48.335Z,13.77
2022-09-10T23:11:23.847Z,13.75
2022-09-10T23:13:57.402Z,13.74
2022-09-10T23:16:26.439Z,13.71
2022-09-10T23:18:55.185Z,13.67
2022-09-10T23:21:26.736Z,13.61
2022-09-10T23:23:56.112Z,13.60
2022-09-10T23:26:23.613Z,13.59
2022-09-10T23:28:50.760Z,13.52
2022-09-10T23:31:19.128Z,13.49
2022-09-10T23:33:51.802Z,13.50
2022-09-10T23:36:18.511Z,13.49
2022-09-10T23:38:44.945Z,13.46
2022-09-10T23:41:12.133Z,13.49
2022-09-10T23:43:40.346Z,13.49
2022-09-10T23:46:08.855Z,13.43
2022-09-10T23:48:36.800Z,13.37
2022-09-10T23:51:04.552Z,13.37
2022-09-10T23:53:31.713Z,13.36
2022-09-10T23:55:58.689Z,13.31
2022-09-10T23:58:25.370Z,13.24
